Time;durP1;ratioP1;P1;durP2;ratioP2;P2;SDS_P1;SDS_P2;PMS_P1;PMS_P2;Temp;Humidity;BMP_temperature;BMP_pressure;BME280_temperature;BME280_humidity;BME280_pressure;Samples;Min_cycle;Max_cycle;Signal;HPM_P1;HPM_P2
2021/06/05 00:00:37;;;;;;;2.45;1.50;;;19.50;77.90;;;;;;6270527;23;20043;-77
2021/06/05 00:03:04;;;;;;;2.33;1.50;;;19.60;78.00;;;;;;6269489;23;20007;-78
2021/06/05 00:05:38;;;;;;;1.60;1.42;;;19.60;78.00;;;;;;6242013;23;20007;-77
2021/06/05 00:08:06;;;;;;;1.98;1.48;;;19.60;78.10;;;;;;6267164;22;20008;-79
2021/06/05 00:10:37;;;;;;;1.52;1.20;;;19.60;78.20;;;;;;6267154;23;19999;-78
2021/06/05 00:13:06;;;;;;;1.52;1.20;;;19.60;78.20;;;;;;6265699;22;20027;-79
2021/06/05 00:15:37;;;;;;;1.60;1.27;;;19.60;78.20;;;;;;6262969;23;20019;-77
2021/06/05 00:18:03;;;;;;;1.00;0.90;;;19.50;78.30;;;;;;6270685;23;19985;-79
2021/06/05 00:20:30;;;;;;;1.15;1.05;;;19.50;78.50;;;;;;6244518;23;20003;-79
2021/06/05 00:22:58;;;;;;;1.52;1.30;;;19.50;78.50;;;;;;6269334;23;20032;-79
2021/06/05 00:25:25;;;;;;;1.85;1.38;;;19.50;78.50;;;;;;6267478;22;20024;-79
2021/06/05 00:27:51;;;;;;;1.20;1.10;;;19.60;78.60;;;;;;6264836;22;19992;-79
2021/06/05 00:30:17;;;;;;;1.48;1.23;;;19.50;78.50;;;;;;6263631;22;20072;-79
2021/06/05 00:32:43;;;;;;;1.25;1.13;;;19.50;78.50;;;;;;6263629;23;20030;-77
2021/06/05 00:35:10;;;;;;;1.33;1.20;;;19.60;78.60;;;;;;6265621;23;20020;-77
2021/06/05 00:37:36;;;;;;;1.15;1.05;;;19.50;78.60;;;;;;6239022;23;20031;-77
2021/06/05 00:40:03;;;;;;;3.17;2.10;;;19.50;78.70;;;;;;6236351;22;20016;-78
2021/06/05 00:42:29;;;;;;;1.65;1.50;;;19.50;78.80;;;;;;6262849;23;20000;-77
2021/06/05 00:44:57;;;;;;;1.85;1.60;;;19.40;78.80;;;;;;6263222;22;19993;-78
2021/06/05 00:47:22;;;;;;;2.05;1.58;;;19.50;79.00;;;;;;6266757;23;19980;-78
2021/06/05 00:49:49;;;;;;;3.05;1.27;;;19.50;79.00;;;;;;6263279;22;20015;-78
2021/06/05 00:52:20;;;;;;;1.88;1.55;;;19.50;79.10;;;;;;6240232;23;20039;-79
2021/06/05 00:54:46;;;;;;;2.50;1.55;;;19.50;79.10;;;;;;6209401;23;20139;-78
2021/06/05 00:57:12;;;;;;;2.38;1.83;;;19.50;79.10;;;;;;6261514;23;19981;-78
2021/06/05 00:59:38;;;;;;;1.90;1.55;;;19.50;79.20;;;;;;6237167;22;20023;-78
2021/06/05 01:02:06;;;;;;;1.80;1.40;;;19.50;79.30;;;;;;6263305;22;20004;-78
2021/06/05 01:04:32;;;;;;;2.13;1.60;;;19.50;79.40;;;;;;6258202;23;20004;-78
2021/06/05 01:07:06;;;;;;;2.42;1.80;;;19.40;79.40;;;;;;6264079;22;20007;-78
2021/06/05 01:09:58;;;;;;;2.60;1.90;;;19.40;79.60;;;;;;6237841;23;20015;-78
2021/06/05 01:12:47;;;;;;;1.73;1.50;;;19.40;79.70;;;;;;6267342;22;20012;-79
2021/06/05 01:15:28;;;;;;;2.47;1.75;;;19.40;79.70;;;;;;6213155;23;20012;-78
2021/06/05 01:18:02;;;;;;;2.30;1.40;;;19.40;79.70;;;;;;6264522;23;19988;-78
2021/06/05 01:20:55;;;;;;;1.85;1.13;;;19.40;79.60;;;;;;6237774;23;20060;-78
2021/06/05 01:23:48;;;;;;;2.00;1.60;;;19.30;79.80;;;;;;6263299;23;20055;-77
2021/06/05 01:26:27;;;;;;;1.65;1.40;;;19.30;79.80;;;;;;6262220;23;20030;-79
2021/06/05 01:29:01;;;;;;;2.13;1.83;;;19.30;80.00;;;;;;6260950;23;20024;-78
2021/06/05 01:31:35;;;;;;;2.50;1.88;;;19.30;80.00;;;;;;6262262;23;19997;-78
2021/06/05 01:34:01;;;;;;;1.90;1.45;;;19.30;80.00;;;;;;6260920;23;20004;-78
2021/06/05 01:36:28;;;;;;;1.80;1.63;;;19.30;80.00;;;;;;6256091;22;19996;-78
2021/06/05 01:39:00;;;;;;;1.75;1.40;;;19.30;80.00;;;;;;6258097;23;20081;-79
2021/06/05 01:41:28;;;;;;;2.60;1.67;;;19.20;80.10;;;;;;6265250;23;20001;-79
2021/06/05 01:43:54;;;;;;;2.45;1.92;;;19.20;80.10;;;;;;6219605;23;20012;-79
2021/06/05 01:46:24;;;;;;;2.63;2.08;;;19.20;80.20;;;;;;6271740;22;20020;-79
2021/06/05 01:48:52;;;;;;;3.13;1.92;;;19.20;80.30;;;;;;6272202;22;20016;-79
2021/06/05 01:51:19;;;;;;;4.07;2.47;;;19.10;80.30;;;;;;6270766;23;19995;-78
2021/06/05 01:53:53;;;;;;;2.67;1.75;;;19.20;80.40;;;;;;6272015;23;20000;-78
2021/06/05 01:56:27;;;;;;;2.63;2.05;;;19.10;80.40;;;;;;6271986;22;20026;-79
2021/06/05 01:58:55;;;;;;;3.67;1.80;;;19.10;80.50;;;;;;6271875;23;20000;-80
2021/06/05 02:01:22;;;;;;;2.55;1.85;;;19.10;80.50;;;;;;6270396;23;19984;-79
2021/06/05 02:03:49;;;;;;;2.65;1.85;;;19.10;80.50;;;;;;6244772;23;19992;-79
2021/06/05 02:06:14;;;;;;;3.15;2.00;;;19.00;80.50;;;;;;6269865;22;20424;-79
2021/06/05 02:08:40;;;;;;;2.60;1.98;;;19.00;80.60;;;;;;6268223;22;20016;-78
2021/06/05 02:11:10;;;;;;;2.90;2.08;;;19.00;80.70;;;;;;6270654;23;20006;-78
2021/06/05 02:13:41;;;;;;;4.05;2.53;;;19.00;80.80;;;;;;6242141;23;19991;-79
2021/06/05 02:16:14;;;;;;;5.30;3.42;;;19.00;81.40;;;;;;6262662;23;20009;-78
2021/06/05 02:18:46;;;;;;;4.53;3.00;;;18.90;80.80;;;;;;6263339;23;20016;-78
2021/06/05 02:21:17;;;;;;;3.28;2.50;;;18.80;80.90;;;;;;6268527;23;20065;-78
2021/06/05 02:23:51;;;;;;;3.50;2.35;;;18.80;81.00;;;;;;6266601;23;20000;-80
2021/06/05 02:26:19;;;;;;;2.90;2.10;;;18.70;81.00;;;;;;6265405;23;20000;-79
2021/06/05 02:28:50;;;;;;;3.55;2.58;;;18.70;81.10;;;;;;6262496;23;20060;-78
2021/06/05 02:31:16;;;;;;;5.65;3.83;;;18.70;81.20;;;;;;6237137;23;20435;-78
2021/06/05 02:33:43;;;;;;;4.93;2.97;;;18.60;81.20;;;;;;6238397;23;20005;-79
2021/06/05 02:36:12;;;;;;;4.47;2.90;;;18.60;81.30;;;;;;6238085;23;19981;-78
2021/06/05 02:38:41;;;;;;;3.58;2.20;;;18.60;81.30;;;;;;6238783;23;20432;-78
2021/06/05 02:41:09;;;;;;;3.90;2.63;;;18.50;81.40;;;;;;6265810;23;20016;-80
2021/06/05 02:43:37;;;;;;;4.63;3.05;;;18.50;81.50;;;;;;6264072;22;20075;-78
2021/06/05 02:46:09;;;;;;;3.28;2.30;;;18.50;81.50;;;;;;6233443;23;20060;-79
2021/06/05 02:48:40;;;;;;;4.85;2.78;;;18.40;81.60;;;;;;6265241;23;19996;-79
2021/06/05 02:51:07;;;;;;;4.43;2.85;;;18.40;81.60;;;;;;6239403;22;20043;-79
2021/06/05 02:53:32;;;;;;;4.82;3.20;;;18.40;81.70;;;;;;6237952;23;19997;-80
2021/06/05 02:55:58;;;;;;;5.53;3.60;;;18.40;81.80;;;;;;6212699;23;19992;-78
2021/06/05 02:58:24;;;;;;;4.18;2.78;;;18.30;81.70;;;;;;6264898;22;19976;-78
2021/06/05 03:00:50;;;;;;;5.60;3.40;;;18.30;81.80;;;;;;6266712;23;19997;-79
2021/06/05 03:03:17;;;;;;;5.63;3.78;;;18.30;81.80;;;;;;6239623;23;20011;-79
2021/06/05 03:05:44;;;;;;;8.27;4.80;;;18.30;81.80;;;;;;6237958;23;20016;-78
2021/06/05 03:08:16;;;;;;;7.88;4.65;;;18.10;81.90;;;;;;6262146;23;20023;-78
2021/06/05 03:10:42;;;;;;;6.40;3.70;;;18.00;82.00;;;;;;6263507;23;20000;-78
2021/06/05 03:13:10;;;;;;;5.63;3.53;;;18.00;82.10;;;;;;6266097;23;20811;-78
2021/06/05 03:15:36;;;;;;;5.22;3.13;;;17.90;82.10;;;;;;6262101;22;20445;-78
2021/06/05 03:18:04;;;;;;;5.15;3.22;;;17.90;82.20;;;;;;6263541;23;20004;-78
2021/06/05 03:20:34;;;;;;;5.05;3.10;;;17.90;82.30;;;;;;6264653;22;20004;-78
2021/06/05 03:23:00;;;;;;;6.07;4.23;;;17.90;82.30;;;;;;6264683;22;20161;-78
2021/06/05 03:25:26;;;;;;;4.90;3.08;;;17.80;82.30;;;;;;6239152;23;20066;-79
2021/06/05 03:27:52;;;;;;;5.45;3.45;;;17.70;82.30;;;;;;6262218;23;20067;-78
2021/06/05 03:30:20;;;;;;;7.20;4.15;;;17.70;82.30;;;;;;6261926;22;20329;-78
2021/06/05 03:32:46;;;;;;;7.00;4.18;;;17.70;82.40;;;;;;6266913;23;20003;-78
2021/06/05 03:35:13;;;;;;;4.20;2.58;;;17.70;82.40;;;;;;6263432;22;20020;-78
2021/06/05 03:37:39;;;;;;;4.90;3.10;;;17.70;82.30;;;;;;6263811;23;20011;-79
2021/06/05 03:40:08;;;;;;;5.15;3.03;;;17.70;82.30;;;;;;6267593;23;19984;-78
2021/06/05 03:42:34;;;;;;;4.30;2.60;;;17.70;82.30;;;;;;6265403;23;19988;-78
2021/06/05 03:44:59;;;;;;;6.70;4.05;;;17.70;82.20;;;;;;6268565;22;20012;-79
2021/06/05 03:47:25;;;;;;;3.78;2.40;;;17.60;82.10;;;;;;6269025;23;20486;-79
2021/06/05 03:49:52;;;;;;;4.85;3.22;;;17.60;82.20;;;;;;6242101;23;19996;-79
2021/06/05 03:52:22;;;;;;;4.63;3.05;;;17.70;82.20;;;;;;6267715;22;20008;-79
2021/06/05 03:54:51;;;;;;;5.70;3.00;;;17.60;82.20;;;;;;6265034;23;20035;-80
2021/06/05 03:57:19;;;;;;;5.88;2.95;;;17.70;82.20;;;;;;6264284;23;20014;-79
2021/06/05 03:59:45;;;;;;;4.32;2.63;;;17.60;82.20;;;;;;6267000;23;20031;-79
2021/06/05 04:02:11;;;;;;;4.32;2.55;;;17.70;82.20;;;;;;6213844;23;20000;-79
2021/06/05 04:04:37;;;;;;;5.30;3.08;;;17.60;82.10;;;;;;6263724;23;20019;-80
2021/06/05 04:07:08;;;;;;;4.45;2.40;;;17.60;82.20;;;;;;6260870;23;20015;-79
2021/06/05 04:09:35;;;;;;;4.82;2.67;;;17.60;82.10;;;;;;6268137;22;20000;-79
2021/06/05 04:12:02;;;;;;;4.50;2.72;;;17.60;82.20;;;;;;6271033;22;20000;-79
2021/06/05 04:14:27;;;;;;;4.85;2.72;;;17.60;82.20;;;;;;6238570;23;20021;-79
2021/06/05 04:16:53;;;;;;;7.35;4.22;;;17.60;82.20;;;;;;6264814;23;20031;-79
2021/06/05 04:19:19;;;;;;;6.25;3.90;;;17.60;82.20;;;;;;6211113;23;20036;-80
2021/06/05 04:21:44;;;;;;;5.35;3.17;;;17.60;82.20;;;;;;6236840;23;19988;-80
2021/06/05 04:24:10;;;;;;;5.78;3.17;;;17.60;82.20;;;;;;6229703;23;20004;-80
2021/06/05 04:26:36;;;;;;;7.00;4.07;;;17.60;82.20;;;;;;6257125;23;20004;-80
2021/06/05 04:29:02;;;;;;;5.05;2.70;;;17.60;82.30;;;;;;6252549;23;20444;-80
2021/06/05 04:31:27;;;;;;;5.20;2.35;;;17.60;82.40;;;;;;6255622;23;20418;-81
2021/06/05 04:33:55;;;;;;;5.20;2.88;;;17.50;82.40;;;;;;6261605;22;20012;-80
2021/06/05 04:36:21;;;;;;;4.28;2.55;;;17.50;82.50;;;;;;6255329;23;20278;-81
2021/06/05 04:38:47;;;;;;;5.45;3.15;;;17.50;82.50;;;;;;6236188;23;20006;-80
2021/06/05 04:41:15;;;;;;;4.78;2.70;;;17.50;82.40;;;;;;6255991;23;20000;-81
2021/06/05 04:43:41;;;;;;;4.53;2.63;;;17.60;82.50;;;;;;6234818;23;20008;-80
2021/06/05 04:46:09;;;;;;;6.65;3.40;;;17.60;82.40;;;;;;6252818;23;20009;-80
2021/06/05 04:48:36;;;;;;;6.03;3.55;;;17.60;82.30;;;;;;6223219;23;20062;-80
2021/06/05 04:51:02;;;;;;;4.88;2.70;;;17.70;82.30;;;;;;6245372;23;20302;-79
2021/06/05 04:53:28;;;;;;;5.25;3.15;;;17.70;82.20;;;;;;6223739;23;20004;-80
2021/06/05 04:55:55;;;;;;;6.43;3.08;;;17.70;82.20;;;;;;6221448;23;20027;-80
2021/06/05 04:58:21;;;;;;;7.93;4.32;;;17.70;82.10;;;;;;6220442;23;20003;-81
2021/06/05 05:00:50;;;;;;;7.60;3.83;;;17.80;82.10;;;;;;6219597;23;19996;-81
2021/06/05 05:03:19;;;;;;;6.88;3.20;;;17.80;82.10;;;;;;6245817;23;20429;-81
2021/06/05 05:05:45;;;;;;;5.85;2.85;;;17.70;82.10;;;;;;6245703;23;19997;-80
2021/06/05 05:08:13;;;;;;;5.38;2.83;;;17.80;82.10;;;;;;6242964;23;20337;-80
2021/06/05 05:10:44;;;;;;;5.95;3.25;;;17.70;82.10;;;;;;6244524;23;20078;-81
2021/06/05 05:13:10;;;;;;;6.32;3.38;;;17.70;82.10;;;;;;6183294;23;20033;-81
2021/06/05 05:15:36;;;;;;;5.10;2.70;;;17.70;82.10;;;;;;6158897;23;20433;-81
2021/06/05 05:18:02;;;;;;;4.95;2.58;;;17.80;82.10;;;;;;6156909;23;20005;-81
2021/06/05 05:20:33;;;;;;;4.25;2.50;;;17.80;82.20;;;;;;6138668;23;20083;-81
2021/06/05 05:22:59;;;;;;;4.30;2.15;;;17.80;82.20;;;;;;6160040;23;20025;-81
2021/06/05 05:25:25;;;;;;;4.15;2.50;;;17.70;82.20;;;;;;6162619;23;20017;-81
2021/06/05 05:27:52;;;;;;;5.80;2.80;;;17.80;82.20;;;;;;6159977;23;20021;-82
2021/06/05 05:30:24;;;;;;;3.50;2.13;;;17.80;82.30;;;;;;6094587;23;20022;-81
2021/06/05 05:32:50;;;;;;;5.20;3.03;;;17.80;82.30;;;;;;6094838;23;20015;-81
2021/06/05 05:35:16;;;;;;;5.95;3.25;;;17.80;82.20;;;;;;6096326;23;20447;-81
2021/06/05 05:37:43;;;;;;;7.72;3.83;;;17.80;82.20;;;;;;6095493;23;20009;-81
2021/06/05 05:40:10;;;;;;;5.95;3.28;;;17.80;82.30;;;;;;6120024;23;20011;-81
2021/06/05 05:42:36;;;;;;;4.93;2.60;;;17.90;82.40;;;;;;6095685;23;20112;-81
2021/06/05 05:45:02;;;;;;;5.60;2.88;;;17.80;82.30;;;;;;6118886;23;20010;-82
2021/06/05 05:47:39;;;;;;;4.55;2.67;;;17.80;82.40;;;;;;6153533;23;20013;-81
2021/06/05 05:50:09;;;;;;;5.05;2.83;;;17.90;82.50;;;;;;6154098;23;20017;-80
2021/06/05 05:52:35;;;;;;;4.93;2.57;;;17.90;82.30;;;;;;6152390;23;20072;-81
2021/06/05 05:55:02;;;;;;;5.03;2.58;;;18.00;82.30;;;;;;6129801;23;20060;-82
2021/06/05 05:57:28;;;;;;;4.28;2.50;;;17.90;82.20;;;;;;6153314;23;20013;-82
2021/06/05 05:59:54;;;;;;;4.53;2.75;;;18.00;82.20;;;;;;6154805;23;20069;-81
2021/06/05 06:02:20;;;;;;;6.05;3.08;;;18.10;82.10;;;;;;6134333;23;20016;-82
2021/06/05 06:04:45;;;;;;;4.18;2.30;;;18.10;82.00;;;;;;6142942;23;20009;-82
2021/06/05 06:07:11;;;;;;;5.88;3.08;;;18.10;81.90;;;;;;6177985;23;20032;-82
2021/06/05 06:09:37;;;;;;;5.60;3.10;;;18.20;81.90;;;;;;6167151;23;20020;-81
2021/06/05 06:12:03;;;;;;;5.30;2.40;;;18.10;81.80;;;;;;6171269;23;20059;-81
2021/06/05 06:14:29;;;;;;;4.95;2.25;;;18.10;81.90;;;;;;6190793;23;20001;-82
2021/06/05 06:16:55;;;;;;;7.03;3.33;;;18.20;81.90;;;;;;6204699;23;20053;-84
2021/06/05 06:19:21;;;;;;;5.65;3.22;;;18.20;81.80;;;;;;6157177;23;20023;-82
2021/06/05 06:21:47;;;;;;;6.15;3.30;;;18.30;81.70;;;;;;6251498;23;20020;-83
2021/06/05 06:24:13;;;;;;;4.53;2.50;;;18.30;81.80;;;;;;6243347;23;20008;-83
2021/06/05 06:26:41;;;;;;;4.88;2.40;;;18.30;81.80;;;;;;6193782;23;19992;-82
2021/06/05 06:29:14;;;;;;;4.95;2.70;;;18.40;81.80;;;;;;6263319;22;20019;-83
2021/06/05 06:31:44;;;;;;;5.05;2.80;;;18.40;81.70;;;;;;6265680;23;20020;-82
2021/06/05 06:34:11;;;;;;;4.57;2.35;;;18.50;81.70;;;;;;6208564;23;19997;-82
2021/06/05 06:36:39;;;;;;;4.35;2.10;;;18.40;81.60;;;;;;6241426;23;19996;-83
2021/06/05 06:39:06;;;;;;;3.58;2.20;;;18.40;81.70;;;;;;6262398;23;20005;-83
2021/06/05 06:41:32;;;;;;;4.82;2.70;;;18.50;81.70;;;;;;6234723;23;20032;-83
2021/06/05 06:44:00;;;;;;;2.80;1.63;;;18.50;81.50;;;;;;6236827;23;20030;-82
2021/06/05 06:46:31;;;;;;;4.97;2.30;;;18.50;81.50;;;;;;6236687;23;20000;-83
2021/06/05 06:48:58;;;;;;;2.90;1.80;;;18.50;81.60;;;;;;6265337;23;20007;-82
2021/06/05 06:51:25;;;;;;;2.97;1.80;;;18.50;81.60;;;;;;6235116;23;20235;-82
2021/06/05 06:53:52;;;;;;;3.28;1.80;;;18.50;82.30;;;;;;6258199;23;20425;-82
2021/06/05 06:56:19;;;;;;;3.28;1.90;;;18.50;81.60;;;;;;6259503;23;20019;-84
2021/06/05 06:58:48;;;;;;;3.30;2.10;;;18.60;81.70;;;;;;6227033;23;20036;-84
2021/06/05 07:01:14;;;;;;;4.50;2.35;;;18.60;81.60;;;;;;6173058;23;20009;-83
2021/06/05 07:03:40;;;;;;;3.45;2.22;;;18.50;81.70;;;;;;6193767;23;20047;-83
2021/06/05 07:06:09;;;;;;;2.25;1.40;;;18.60;81.90;;;;;;6172316;23;20015;-83
2021/06/05 07:08:39;;;;;;;4.07;2.00;;;18.50;82.50;;;;;;6190837;23;20473;-83
2021/06/05 07:11:08;;;;;;;3.53;1.80;;;18.50;81.80;;;;;;6164749;23;20009;-84
2021/06/05 07:13:34;;;;;;;3.45;2.03;;;18.40;81.80;;;;;;6163774;23;20036;-84
2021/06/05 07:16:01;;;;;;;3.45;1.80;;;18.50;81.90;;;;;;6188605;23;20059;-83
2021/06/05 07:18:30;;;;;;;3.33;1.73;;;18.60;81.90;;;;;;6191986;23;20007;-83
2021/06/05 07:21:00;;;;;;;3.15;1.75;;;18.50;81.90;;;;;;6193327;23;20011;-86
2021/06/05 07:23:28;;;;;;;3.53;1.67;;;18.50;81.90;;;;;;6131430;23;20026;-84
2021/06/05 07:25:56;;;;;;;2.20;1.40;;;18.60;81.90;;;;;;6129089;23;20023;-83
2021/06/05 07:28:34;;;;;;;1.65;1.30;;;18.80;81.70;;;;;;6160677;23;20037;-83
2021/06/05 07:31:02;;;;;;;2.67;1.52;;;18.80;81.70;;;;;;6134681;23;20002;-83
2021/06/05 07:33:28;;;;;;;1.67;1.33;;;18.80;81.50;;;;;;6188195;23;20013;-81
2021/06/05 07:35:56;;;;;;;2.45;1.60;;;18.70;81.30;;;;;;6206041;23;20144;-82
2021/06/05 07:38:24;;;;;;;2.10;1.42;;;18.80;81.40;;;;;;6180990;23;20043;-81
2021/06/05 07:40:51;;;;;;;2.65;1.70;;;18.90;81.40;;;;;;6217919;23;19989;-83
2021/06/05 07:43:19;;;;;;;3.65;1.98;;;19.10;81.20;;;;;;6170919;23;20009;-84
2021/06/05 07:45:45;;;;;;;2.75;1.75;;;19.10;81.10;;;;;;6184151;23;20032;-84
2021/06/05 07:48:12;;;;;;;2.20;1.38;;;19.00;80.80;;;;;;6183192;23;20017;-84
2021/06/05 07:50:45;;;;;;;2.15;1.38;;;19.00;80.80;;;;;;6157842;23;20450;-85
2021/06/05 07:53:11;;;;;;;2.38;1.52;;;19.00;80.90;;;;;;6181288;23;20005;-83
2021/06/05 07:55:38;;;;;;;1.98;1.30;;;19.00;81.00;;;;;;6245113;23;20035;-82
2021/06/05 07:58:04;;;;;;;1.42;1.25;;;19.10;81.10;;;;;;6217796;23;20004;-82
2021/06/05 08:00:33;;;;;;;3.08;1.88;;;19.00;81.20;;;;;;6217680;23;20412;-82
2021/06/05 08:02:59;;;;;;;2.30;1.77;;;19.00;81.40;;;;;;6217281;23;20087;-82
2021/06/05 08:05:25;;;;;;;2.28;1.75;;;18.90;81.50;;;;;;6243487;23;20459;-82
2021/06/05 08:08:28;;;;;;;2.25;1.65;;;18.90;81.60;;;;;;6246282;23;20004;-85
2021/06/05 08:10:59;;;;;;;1.73;1.30;;;18.90;81.70;;;;;;6211212;23;20016;-85
2021/06/05 08:13:41;;;;;;;2.20;1.60;;;18.90;81.60;;;;;;6218190;23;20016;-85
2021/06/05 08:16:31;;;;;;;2.08;1.50;;;18.80;81.60;;;;;;6242688;23;20020;-84
2021/06/05 08:18:57;;;;;;;1.83;1.42;;;19.00;81.50;;;;;;6188060;23;20017;-84
2021/06/05 08:21:22;;;;;;;1.92;1.30;;;18.90;81.50;;;;;;6189243;23;20008;-85
2021/06/05 08:24:00;;;;;;;2.47;1.65;;;18.90;81.50;;;;;;6159390;23;20336;-86
2021/06/05 08:26:31;;;;;;;1.92;1.40;;;18.90;81.50;;;;;;6157045;23;20036;-86
2021/06/05 08:28:57;;;;;;;1.95;1.27;;;19.00;81.50;;;;;;6180612;23;20446;-86
2021/06/05 08:31:23;;;;;;;1.38;1.17;;;18.90;81.50;;;;;;6131133;23;20017;-82
2021/06/05 08:33:59;;;;;;;1.85;1.30;;;18.80;81.40;;;;;;6136045;23;20018;-81
2021/06/05 08:36:27;;;;;;;1.63;1.10;;;19.00;81.50;;;;;;6101568;23;20096;-82
2021/06/05 08:38:53;;;;;;;1.92;1.30;;;18.90;81.60;;;;;;6103651;23;20048;-83
2021/06/05 08:41:50;;;;;;;1.00;0.90;;;18.80;81.60;;;;;;6038084;23;20475;-82
2021/06/05 08:44:38;;;;;;;1.60;1.10;;;18.80;81.70;;;;;;6063235;23;20479;-82
2021/06/05 08:47:10;;;;;;;1.92;1.30;;;18.80;81.70;;;;;;6039042;23;20467;-82
2021/06/05 08:49:40;;;;;;;1.55;1.10;;;18.70;81.80;;;;;;6015750;23;20118;-82
2021/06/05 08:52:25;;;;;;;1.83;1.40;;;18.80;81.80;;;;;;6031424;23;20018;-83
2021/06/05 08:55:12;;;;;;;1.10;1.00;;;18.90;81.90;;;;;;6081633;23;20028;-82
2021/06/05 08:57:43;;;;;;;1.42;1.10;;;18.80;81.80;;;;;;6043672;23;20547;-82
2021/06/05 09:00:26;;;;;;;0.88;0.88;;;18.80;81.70;;;;;;6118384;23;20014;-82
2021/06/05 09:02:57;;;;;;;1.98;1.23;;;18.80;81.70;;;;;;6118542;23;20104;-82
2021/06/05 09:05:30;;;;;;;1.58;1.20;;;18.90;81.60;;;;;;6070990;23;20031;-82
2021/06/05 09:07:56;;;;;;;2.13;1.27;;;19.00;81.50;;;;;;6090876;23;20068;-82
2021/06/05 09:10:23;;;;;;;1.95;1.20;;;19.00;81.50;;;;;;6098540;23;20451;-83
2021/06/05 09:12:50;;;;;;;0.80;0.80;;;19.00;81.50;;;;;;6095232;23;20010;-82
2021/06/05 09:15:23;;;;;;;1.80;1.15;;;19.00;81.50;;;;;;6050472;23;20013;-83
2021/06/05 09:17:52;;;;;;;1.10;1.00;;;19.00;81.60;;;;;;6115022;23;20006;-83
2021/06/05 09:20:37;;;;;;;1.10;0.90;;;18.90;81.60;;;;;;6193659;23;20012;-82
2021/06/05 09:23:37;;;;;;;0.90;0.85;;;18.90;81.70;;;;;;6194216;23;20039;-83
2021/06/05 09:26:23;;;;;;;1.00;0.82;;;18.90;81.90;;;;;;6243250;23;20066;-82
2021/06/05 09:28:49;;;;;;;1.02;0.80;;;18.90;81.90;;;;;;6217686;23;20027;-82
2021/06/05 09:31:21;;;;;;;1.50;1.10;;;19.00;82.40;;;;;;6243316;23;20007;-83
2021/06/05 09:33:47;;;;;;;1.02;0.93;;;19.10;81.60;;;;;;6217855;23;20495;-81
2021/06/05 09:36:36;;;;;;;1.02;0.90;;;19.20;81.40;;;;;;6192667;23;20000;-83
2021/06/05 09:39:09;;;;;;;1.08;0.88;;;19.30;81.20;;;;;;6216785;23;20031;-82
2021/06/05 09:41:49;;;;;;;1.27;1.13;;;19.20;81.20;;;;;;6217858;23;20012;-82
2021/06/05 09:44:27;;;;;;;1.27;1.08;;;19.20;81.20;;;;;;6216569;23;20023;-83
2021/06/05 09:47:04;;;;;;;0.90;0.90;;;19.30;81.30;;;;;;6192753;23;20448;-85
2021/06/05 09:49:39;;;;;;;1.02;0.93;;;19.30;81.20;;;;;;6243638;23;20009;-83
2021/06/05 09:52:11;;;;;;;0.90;0.90;;;19.30;81.20;;;;;;6243423;23;20352;-82
2021/06/05 09:54:42;;;;;;;1.38;1.10;;;19.30;81.10;;;;;;6217915;23;20012;-84
2021/06/05 09:57:24;;;;;;;1.05;0.98;;;19.40;80.90;;;;;;6192674;23;20008;-83
2021/06/05 10:00:13;;;;;;;1.75;1.20;;;19.50;80.80;;;;;;6243370;22;20467;-83
2021/06/05 10:02:46;;;;;;;1.17;0.98;;;19.50;80.70;;;;;;6193098;23;20031;-82
2021/06/05 10:05:27;;;;;;;1.05;0.98;;;19.50;80.60;;;;;;6192701;23;20005;-85
2021/06/05 10:07:56;;;;;;;1.00;0.88;;;19.50;80.50;;;;;;6243055;23;20077;-82
2021/06/05 10:10:40;;;;;;;1.30;1.02;;;19.60;80.60;;;;;;6218774;23;20065;-84
2021/06/05 10:13:19;;;;;;;0.93;0.90;;;19.60;80.50;;;;;;6219647;23;20111;-84
2021/06/05 10:15:57;;;;;;;1.40;1.30;;;19.60;80.40;;;;;;6247133;23;20028;-83
2021/06/05 10:18:35;;;;;;;1.48;1.20;;;19.50;80.50;;;;;;6243151;23;20436;-82
2021/06/05 10:21:10;;;;;;;1.88;1.33;;;19.50;80.70;;;;;;6244602;23;20008;-82
2021/06/05 10:23:44;;;;;;;1.50;1.08;;;19.60;80.80;;;;;;6193526;23;20015;-82
2021/06/05 10:26:25;;;;;;;1.15;0.93;;;19.50;80.60;;;;;;6247386;23;20012;-81
2021/06/05 10:28:56;;;;;;;1.30;1.02;;;19.50;80.60;;;;;;6245393;23;20012;-80
2021/06/05 10:31:23;;;;;;;2.13;1.60;;;19.50;80.80;;;;;;6242693;22;20466;-80
2021/06/05 10:34:00;;;;;;;1.30;1.17;;;19.50;80.70;;;;;;6243574;23;20428;-80
2021/06/05 10:36:35;;;;;;;1.20;0.85;;;19.60;80.80;;;;;;6194930;23;20012;-81
2021/06/05 10:39:07;;;;;;;1.80;1.10;;;19.60;80.70;;;;;;6245320;23;20012;-82
2021/06/05 10:41:37;;;;;;;1.75;0.95;;;19.60;80.60;;;;;;6220080;23;20008;-80
2021/06/05 10:44:06;;;;;;;1.05;1.00;;;19.70;80.60;;;;;;6245084;23;20018;-81
2021/06/05 10:46:48;;;;;;;1.17;1.02;;;19.60;80.60;;;;;;6220364;23;20008;-81
2021/06/05 10:49:27;;;;;;;1.85;1.00;;;19.60;80.60;;;;;;6245479;23;20012;-80
2021/06/05 10:52:08;;;;;;;0.88;0.82;;;19.60;80.70;;;;;;6222515;23;20031;-81
2021/06/05 10:54:36;;;;;;;;;;;19.50;80.70;;;;;;6197423;23;20000;-81
2021/06/05 10:57:24;;;;;;;1.00;0.90;;;19.50;80.60;;;;;;6196185;23;19900;-80
2021/06/05 10:59:57;;;;;;;1.17;1.00;;;19.50;80.70;;;;;;6248561;23;20011;-81
2021/06/05 11:02:46;;;;;;;1.10;1.00;;;19.40;80.80;;;;;;6247696;22;20071;-82
2021/06/05 11:05:39;;;;;;;1.10;0.85;;;19.50;80.90;;;;;;6247538;23;20091;-81
2021/06/05 11:08:29;;;;;;;0.75;0.75;;;19.40;80.80;;;;;;6218566;23;20000;-82
2021/06/05 11:11:25;;;;;;;1.10;1.00;;;19.50;80.90;;;;;;6217729;23;20009;-80
2021/06/05 11:13:52;;;;;;;0.98;0.90;;;19.50;80.80;;;;;;6246166;23;20008;-81
2021/06/05 11:16:21;;;;;;;1.08;1.00;;;19.50;80.80;;;;;;6246951;23;20035;-81
2021/06/05 11:19:23;;;;;;;1.50;1.40;;;19.60;80.70;;;;;;6217239;23;20019;-80
2021/06/05 11:22:02;;;;;;;1.52;1.20;;;19.60;80.70;;;;;;6219967;23;20008;-80
2021/06/05 11:24:28;;;;;;;2.28;1.45;;;19.60;80.40;;;;;;6219238;23;20095;-80
2021/06/05 11:26:56;;;;;;;1.67;1.23;;;19.60;80.30;;;;;;6246614;23;20090;-81
2021/06/05 11:29:49;;;;;;;2.05;1.40;;;19.60;80.40;;;;;;6245734;23;20078;-80
2021/06/05 11:32:48;;;;;;;1.23;1.05;;;19.60;80.50;;;;;;6218898;23;20016;-79
2021/06/05 11:35:46;;;;;;;1.40;1.10;;;19.70;80.60;;;;;;6245297;23;20000;-81
2021/06/05 11:38:47;;;;;;;1.20;1.10;;;19.80;80.30;;;;;;6243375;23;20070;-81
2021/06/05 11:41:41;;;;;;;1.60;1.20;;;19.90;80.10;;;;;;6218246;23;20031;-81
2021/06/05 11:44:37;;;;;;;1.27;1.17;;;20.00;79.80;;;;;;6217902;23;20015;-80
2021/06/05 11:47:34;;;;;;;0.90;0.90;;;20.10;79.50;;;;;;6218025;23;20081;-80
2021/06/05 11:50:34;;;;;;;0.85;0.80;;;20.00;79.50;;;;;;6216888;23;20015;-80
2021/06/05 11:53:38;;;;;;;1.20;1.02;;;19.90;79.70;;;;;;6218038;23;20058;-80
2021/06/05 11:56:07;;;;;;;1.38;1.10;;;19.80;79.90;;;;;;6244163;23;20447;-80
2021/06/05 11:58:36;;;;;;;1.30;1.20;;;19.80;80.10;;;;;;6243441;23;20004;-79
2021/06/05 12:01:10;;;;;;;1.40;0.93;;;19.70;80.20;;;;;;6191909;23;20011;-79
2021/06/05 12:03:47;;;;;;;1.27;1.10;;;19.70;80.50;;;;;;6217300;23;20061;-79
2021/06/05 12:06:29;;;;;;;0.93;0.90;;;19.60;80.50;;;;;;6243440;23;20005;-80
2021/06/05 12:09:12;;;;;;;1.35;1.25;;;19.60;80.60;;;;;;6220283;23;20015;-80
2021/06/05 12:11:45;;;;;;;1.73;1.38;;;19.60;80.60;;;;;;6247646;23;20015;-81
2021/06/05 12:14:39;;;;;;;1.35;1.15;;;19.60;80.60;;;;;;6245311;23;20095;-80
2021/06/05 12:17:37;;;;;;;1.02;1.02;;;19.60;80.60;;;;;;6216964;23;20020;-79
2021/06/05 12:20:29;;;;;;;1.20;1.10;;;19.70;80.90;;;;;;6244887;23;20024;-79
2021/06/05 12:22:59;;;;;;;1.20;1.00;;;19.70;80.20;;;;;;6244056;23;20095;-79
2021/06/05 12:25:34;;;;;;;1.67;1.23;;;19.80;80.10;;;;;;6243112;23;20111;-79
2021/06/05 12:28:12;;;;;;;1.20;1.00;;;19.80;80.10;;;;;;6243861;23;20203;-79
2021/06/05 12:30:43;;;;;;;1.45;1.15;;;19.80;80.10;;;;;;6243355;23;20012;-80
2021/06/05 12:33:12;;;;;;;1.52;1.20;;;19.80;80.00;;;;;;6194154;23;20004;-80
2021/06/05 12:35:43;;;;;;;1.27;1.17;;;19.90;79.90;;;;;;6246261;23;20015;-80
2021/06/05 12:38:12;;;;;;;1.30;1.13;;;19.90;79.90;;;;;;6245550;23;20067;-81
2021/06/05 12:40:58;;;;;;;0.88;0.88;;;19.80;79.90;;;;;;6218563;23;20004;-79
2021/06/05 12:43:30;;;;;;;1.10;1.00;;;19.80;80.00;;;;;;6244131;23;20000;-79
2021/06/05 12:46:00;;;;;;;1.33;1.10;;;19.80;80.00;;;;;;6244206;23;20000;-80
2021/06/05 12:48:28;;;;;;;1.55;1.00;;;19.80;80.20;;;;;;6243194;23;20000;-79
2021/06/05 12:50:56;;;;;;;1.10;1.00;;;19.70;80.20;;;;;;6218076;23;20004;-79
2021/06/05 12:53:25;;;;;;;1.63;1.42;;;19.70;80.30;;;;;;6247235;23;20023;-79
2021/06/05 12:55:55;;;;;;;1.50;1.40;;;19.80;80.30;;;;;;6218880;23;20095;-81
2021/06/05 12:58:35;;;;;;;1.52;1.38;;;19.80;80.10;;;;;;6245926;23;20012;-79
2021/06/05 13:01:04;;;;;;;1.23;1.13;;;19.90;80.00;;;;;;6241892;23;20012;-79
2021/06/05 13:03:45;;;;;;;1.25;1.15;;;20.00;79.80;;;;;;6218129;23;20008;-80
2021/06/05 13:06:19;;;;;;;1.50;1.23;;;20.00;79.50;;;;;;6247038;23;20008;-79
2021/06/05 13:08:47;;;;;;;1.00;0.90;;;20.00;79.40;;;;;;6247076;23;20012;-79
2021/06/05 13:11:32;;;;;;;1.73;1.33;;;19.90;79.40;;;;;;6245082;23;20004;-80